Tampa, Florida
Traffic Map
Current Weather Conditions
Tampa, Florida
Broken Clouds
Broken Clouds
28°
Feels Like: 31°
Wind Chill: 28° Ceiling: 25000
Heat Index: 31° Visibility: 10mi
Dew Point: 23° Wind: 3mph
Humidity: 74% Direction: ° ()
Pressure: 30.08in Gusts: 0mph
Raw Report DataKTPA 220553Z VRB03KT 10SM BKN250 28/23 A3008 RMK AO2 SLP184 T02780228 10289 20272 58011
Traffic Incident Summary
Active as of:
Severity:
Category:
InformationThere was an issue retrieving the traffic information for this location. Please try a different location or try again shortly.
Advertisements
Track Severe Weather on mobile